createdAt,value
2019-02-26T00:00:00.894Z,1030.09
2019-02-26T00:01:00.950Z,1030.09
2019-02-26T00:02:56.324Z,1030.08
2019-02-26T00:03:53.980Z,1030.08
2019-02-26T00:05:49.857Z,1030.07
2019-02-26T00:06:49.022Z,1030.08
2019-02-26T00:08:40.025Z,1030.06
2019-02-26T00:09:40.072Z,1030.11
2019-02-26T00:11:34.068Z,1030.11
2019-02-26T00:12:33.797Z,1030.10
2019-02-26T00:14:27.534Z,1030.06
2019-02-26T00:15:26.134Z,1030.09
2019-02-26T00:17:19.582Z,1030.09
2019-02-26T00:18:21.327Z,1030.10
2019-02-26T00:20:12.771Z,1030.09
2019-02-26T00:21:12.212Z,1030.06
2019-02-26T00:23:05.189Z,1030.07
2019-02-26T00:24:07.146Z,1030.04
2019-02-26T00:25:58.214Z,1030.03
2019-02-26T00:26:59.314Z,1030.03
2019-02-26T00:28:51.251Z,1030.02
2019-02-26T00:29:53.009Z,1030.05
2019-02-26T00:31:46.144Z,1030.05
2019-02-26T00:32:44.335Z,1030.02
2019-02-26T00:34:39.006Z,1029.99
2019-02-26T00:35:39.332Z,1030.02
2019-02-26T00:37:30.717Z,1029.98
2019-02-26T00:38:30.421Z,1029.98
2019-02-26T00:40:23.395Z,1029.92
2019-02-26T00:41:24.671Z,1029.91
2019-02-26T00:43:20.942Z,1029.86
2019-02-26T00:44:18.645Z,1029.84
2019-02-26T00:46:10.342Z,1029.86
2019-02-26T00:47:09.548Z,1029.84
2019-02-26T00:49:03.122Z,1029.83
2019-02-26T00:50:02.548Z,1029.82
2019-02-26T00:51:55.532Z,1029.86
2019-02-26T00:52:57.038Z,1029.87
2019-02-26T00:54:48.562Z,1029.82
2019-02-26T00:55:48.612Z,1029.83
2019-02-26T00:57:43.092Z,1029.73
2019-02-26T00:58:44.016Z,1029.71
2019-02-26T01:00:35.480Z,1029.63
2019-02-26T01:01:34.678Z,1029.60
2019-02-26T01:03:27.665Z,1029.63
2019-02-26T01:04:27.712Z,1029.60
2019-02-26T01:06:22.098Z,1029.62
2019-02-26T01:07:21.366Z,1029.61
2019-02-26T01:09:13.735Z,1029.63
2019-02-26T01:10:15.728Z,1029.64
2019-02-26T01:12:09.031Z,1029.65
2019-02-26T01:13:07.256Z,1029.66
2019-02-26T01:14:59.799Z,1029.63
2019-02-26T01:15:59.849Z,1029.62
2019-02-26T01:17:54.931Z,1029.62
2019-02-26T01:18:53.237Z,1029.60
2019-02-26T01:20:48.347Z,1029.61
2019-02-26T01:21:45.915Z,1029.67
2019-02-26T01:23:38.896Z,1029.61
2019-02-26T01:24:38.945Z,1029.59
2019-02-26T01:26:31.924Z,1029.63
2019-02-26T01:27:31.984Z,1029.61
2019-02-26T01:29:25.869Z,1029.54
2019-02-26T01:30:27.012Z,1029.60
2019-02-26T01:32:20.435Z,1029.56
2019-02-26T01:33:18.043Z,1029.57
2019-02-26T01:35:12.827Z,1029.63
2019-02-26T01:36:11.082Z,1029.66
2019-02-26T01:38:04.070Z,1029.68
2019-02-26T01:39:07.320Z,1029.67
2019-02-26T01:40:57.098Z,1029.63
2019-02-26T01:41:58.813Z,1029.64
2019-02-26T01:43:50.139Z,1029.60
2019-02-26T01:44:50.182Z,1029.56
2019-02-26T01:46:43.187Z,1029.53
2019-02-26T01:47:45.564Z,1029.52
2019-02-26T01:49:36.225Z,1029.56
2019-02-26T01:50:37.951Z,1029.60
2019-02-26T01:52:29.248Z,1029.61
2019-02-26T01:53:29.303Z,1029.61
2019-02-26T01:55:22.962Z,1029.59
2019-02-26T01:56:22.335Z,1029.57
2019-02-26T01:58:16.545Z,1029.51
2019-02-26T01:59:18.327Z,1029.47
2019-02-26T02:01:10.013Z,1029.44
2019-02-26T02:02:12.176Z,1029.41
2019-02-26T02:04:01.377Z,1029.37
2019-02-26T02:05:03.198Z,1029.35
2019-02-26T02:06:56.615Z,1029.37
2019-02-26T02:07:55.997Z,1029.36
2019-02-26T02:09:48.990Z,1029.30
2019-02-26T02:10:49.649Z,1029.24
2019-02-26T02:12:41.499Z,1029.21
2019-02-26T02:13:41.363Z,1029.24
2019-02-26T02:15:35.554Z,1029.15
2019-02-26T02:16:33.634Z,1029.13
2019-02-26T02:18:28.123Z,1029.11
2019-02-26T02:19:27.598Z,1029.02
2019-02-26T02:21:19.565Z,1029.06
2019-02-26T02:22:21.300Z,1029.00
2019-02-26T02:24:14.712Z,1028.97
2019-02-26T02:25:12.649Z,1028.96
2019-02-26T02:27:05.628Z,1028.93
2019-02-26T02:28:05.691Z,1028.90
2019-02-26T02:29:58.667Z,1028.99
2019-02-26T02:30:58.721Z,1028.98
2019-02-26T02:32:55.075Z,1028.96
2019-02-26T02:33:51.749Z,1028.95
2019-02-26T02:35:44.730Z,1028.94
2019-02-26T02:36:44.779Z,1028.92
2019-02-26T02:38:37.783Z,1028.97
2019-02-26T02:39:37.831Z,1028.92
2019-02-26T02:41:30.791Z,1028.95
2019-02-26T02:42:30.838Z,1028.94
2019-02-26T02:44:25.596Z,1028.93
2019-02-26T02:45:23.905Z,1028.90
2019-02-26T02:47:16.852Z,1028.88
2019-02-26T02:48:16.903Z,1028.84
2019-02-26T02:50:11.839Z,1028.82
2019-02-26T02:51:13.153Z,1028.82
2019-02-26T02:53:04.056Z,1028.75
2019-02-26T02:54:02.969Z,1028.78
2019-02-26T02:55:55.945Z,1028.77
2019-02-26T02:56:56.782Z,1028.76
2019-02-26T02:58:51.605Z,1028.82
2019-02-26T02:59:49.037Z,1028.80
2019-02-26T03:01:43.085Z,1028.81
2019-02-26T03:02:43.363Z,1028.84
2019-02-26T03:04:35.071Z,1028.79
2019-02-26T03:05:37.457Z,1028.81
2019-02-26T03:07:29.434Z,1028.84
2019-02-26T03:08:28.148Z,1028.85
2019-02-26T03:10:21.130Z,1028.78
2019-02-26T03:11:21.176Z,1028.82
2019-02-26T03:13:15.006Z,1028.74
2019-02-26T03:14:16.529Z,1028.76
2019-02-26T03:16:07.193Z,1028.76
2019-02-26T03:17:09.215Z,1028.75
2019-02-26T03:19:00.222Z,1028.76
2019-02-26T03:20:02.744Z,1028.79
2019-02-26T03:21:55.031Z,1028.81
2019-02-26T03:22:53.293Z,1028.85
2019-02-26T03:24:48.248Z,1028.90
2019-02-26T03:25:47.448Z,1028.87
2019-02-26T03:27:40.589Z,1028.90
2019-02-26T03:28:39.968Z,1028.89
2019-02-26T03:30:38.158Z,1028.91
2019-02-26T03:31:34.810Z,1028.89
2019-02-26T03:33:25.513Z,1028.89
2019-02-26T03:34:25.889Z,1028.87
2019-02-26T03:36:19.275Z,1028.91
2019-02-26T03:37:18.446Z,1028.93
2019-02-26T03:39:11.582Z,1028.95
2019-02-26T03:40:11.468Z,1028.96
2019-02-26T03:42:04.445Z,1028.97
2019-02-26T03:43:06.996Z,1028.97
2019-02-26T03:44:59.656Z,1028.97
2019-02-26T03:45:57.536Z,1028.98
2019-02-26T03:47:50.515Z,1029.00
2019-02-26T03:48:50.569Z,1029.01
2019-02-26T03:50:44.592Z,1029.01
2019-02-26T03:51:43.616Z,1029.03
2019-02-26T03:53:38.517Z,1029.02
2019-02-26T03:54:39.826Z,1029.02
2019-02-26T03:56:30.130Z,1029.03
2019-02-26T03:57:30.180Z,1029.10
2019-02-26T03:59:23.175Z,1029.06
2019-02-26T04:00:23.208Z,1029.06
2019-02-26T04:02:18.152Z,1029.01
2019-02-26T04:03:17.391Z,1028.99
2019-02-26T04:05:09.230Z,1029.04
2019-02-26T04:06:10.069Z,1029.03
2019-02-26T04:08:04.442Z,1029.04
2019-02-26T04:09:02.321Z,1029.10
2019-02-26T04:10:55.994Z,1029.07
2019-02-26T04:11:55.454Z,1029.14
2019-02-26T04:13:49.352Z,1029.11
2019-02-26T04:14:48.363Z,1029.15
2019-02-26T04:16:43.628Z,1029.12
2019-02-26T04:17:42.250Z,1029.12
2019-02-26T04:19:34.386Z,1029.10
2019-02-26T04:20:34.423Z,1029.09
2019-02-26T04:22:27.399Z,1029.13
2019-02-26T04:23:27.450Z,1029.11
2019-02-26T04:25:22.148Z,1029.13
2019-02-26T04:26:21.065Z,1029.17
2019-02-26T04:28:13.457Z,1029.20
2019-02-26T04:29:13.515Z,1029.17
2019-02-26T04:31:06.502Z,1029.13
2019-02-26T04:32:06.551Z,1029.14
2019-02-26T04:34:01.826Z,1029.16
2019-02-26T04:35:00.502Z,1029.10
2019-02-26T04:36:52.550Z,1029.15
2019-02-26T04:37:53.264Z,1029.15
2019-02-26T04:39:47.625Z,1029.16
2019-02-26T04:40:45.629Z,1029.18
2019-02-26T04:42:40.977Z,1029.16
2019-02-26T04:43:38.828Z,1029.13
2019-02-26T04:45:31.639Z,1029.13
2019-02-26T04:46:34.333Z,1029.10
2019-02-26T04:48:26.936Z,1029.09
2019-02-26T04:49:27.118Z,1029.11
2019-02-26T04:51:17.696Z,1029.17
2019-02-26T04:52:17.760Z,1029.19
2019-02-26T04:54:10.739Z,1029.16
2019-02-26T04:55:10.778Z,1029.17
2019-02-26T04:57:04.256Z,1029.19
2019-02-26T04:58:04.306Z,1029.17
2019-02-26T04:59:59.135Z,1029.18
2019-02-26T05:00:57.330Z,1029.11
2019-02-26T05:02:50.308Z,1029.10
2019-02-26T05:03:50.358Z,1029.09
2019-02-26T05:05:43.342Z,1029.11
2019-02-26T05:06:43.391Z,1029.14
2019-02-26T05:08:37.595Z,1029.13
2019-02-26T05:09:36.418Z,1029.13
2019-02-26T05:11:32.587Z,1029.13
2019-02-26T05:12:31.660Z,1029.12
2019-02-26T05:14:23.629Z,1029.10
2019-02-26T05:15:23.354Z,1029.07
2019-02-26T05:17:15.465Z,1029.08
2019-02-26T05:18:17.638Z,1029.07
2019-02-26T05:20:10.469Z,1029.09
2019-02-26T05:21:10.864Z,1029.09
2019-02-26T05:23:03.087Z,1029.12
2019-02-26T05:24:03.049Z,1029.13
2019-02-26T05:25:59.698Z,1029.07
2019-02-26T05:26:54.599Z,1029.08
2019-02-26T05:28:49.709Z,1029.05
2019-02-26T05:29:49.169Z,1029.02
2019-02-26T05:31:43.046Z,1029.10
2019-02-26T05:32:40.659Z,1029.09
2019-02-26T05:34:33.635Z,1029.10
2019-02-26T05:35:33.680Z,1029.14
2019-02-26T05:37:29.241Z,1029.13
2019-02-26T05:38:29.639Z,1029.13
2019-02-26T05:40:22.163Z,1029.13
2019-02-26T05:41:19.740Z,1029.12
2019-02-26T05:43:12.731Z,1029.14
2019-02-26T05:44:12.778Z,1029.11
2019-02-26T05:46:05.778Z,1029.10
2019-02-26T05:47:05.835Z,1029.12
2019-02-26T05:48:58.820Z,1029.16
2019-02-26T05:49:59.532Z,1029.22
2019-02-26T05:51:53.540Z,1029.20
2019-02-26T05:52:57.599Z,1029.19
2019-02-26T05:54:44.879Z,1029.19
2019-02-26T05:55:47.673Z,1029.17
2019-02-26T05:57:37.910Z,1029.21
2019-02-26T05:58:39.427Z,1029.19
2019-02-26T06:00:33.337Z,1029.23
2019-02-26T06:01:30.991Z,1029.18
2019-02-26T06:03:23.964Z,1029.22
2019-02-26T06:04:24.022Z,1029.22
2019-02-26T06:06:16.991Z,1029.20
2019-02-26T06:07:21.730Z,1029.23
2019-02-26T06:09:10.028Z,1029.21
2019-02-26T06:10:10.075Z,1029.19
2019-02-26T06:12:03.053Z,1029.14
2019-02-26T06:13:05.018Z,1029.14
2019-02-26T06:14:58.448Z,1029.10
2019-02-26T06:15:58.544Z,1029.14
2019-02-26T06:17:50.809Z,1029.10
2019-02-26T06:18:51.703Z,1029.12
2019-02-26T06:20:42.139Z,1029.16
2019-02-26T06:21:44.304Z,1029.20
2019-02-26T06:23:36.682Z,1029.14
2019-02-26T06:24:36.157Z,1029.16
2019-02-26T06:26:32.416Z,1029.18
2019-02-26T06:27:28.240Z,1029.17
2019-02-26T06:29:24.445Z,1029.14
2019-02-26T06:30:21.266Z,1029.13
2019-02-26T06:32:14.252Z,1029.16
2019-02-26T06:33:16.284Z,1029.15
2019-02-26T06:35:08.539Z,1029.09
2019-02-26T06:36:07.330Z,1029.11
2019-02-26T06:38:02.142Z,1029.11
2019-02-26T06:39:01.529Z,1029.09
2019-02-26T06:40:53.344Z,1029.11
2019-02-26T06:41:53.370Z,1029.07
2019-02-26T06:43:48.518Z,1029.06
2019-02-26T06:44:48.879Z,1029.03
2019-02-26T06:46:39.386Z,1029.05
2019-02-26T06:47:39.439Z,1029.07
2019-02-26T06:49:32.417Z,1029.08
2019-02-26T06:50:34.080Z,1029.11
2019-02-26T06:52:25.446Z,1029.17
2019-02-26T06:53:25.499Z,1029.18
2019-02-26T06:55:18.485Z,1029.16
2019-02-26T06:56:18.531Z,1029.20
2019-02-26T06:58:11.510Z,1029.24
2019-02-26T06:59:12.285Z,1029.18
2019-02-26T07:01:04.555Z,1029.22
2019-02-26T07:02:04.616Z,1029.19
2019-02-26T07:03:57.595Z,1029.21
2019-02-26T07:04:57.640Z,1029.18
2019-02-26T07:06:50.612Z,1029.21
2019-02-26T07:07:54.072Z,1029.18
2019-02-26T07:09:44.009Z,1029.18
2019-02-26T07:10:43.696Z,1029.17
2019-02-26T07:12:38.356Z,1029.19
2019-02-26T07:13:38.587Z,1029.18
2019-02-26T07:15:29.713Z,1029.19
2019-02-26T07:16:29.758Z,1029.19
2019-02-26T07:18:22.739Z,1029.15
2019-02-26T07:19:22.785Z,1029.12
2019-02-26T07:21:15.762Z,1029.14
2019-02-26T07:22:16.479Z,1029.16
2019-02-26T07:24:08.796Z,1029.18
2019-02-26T07:25:10.690Z,1029.20
2019-02-26T07:27:03.814Z,1029.20
2019-02-26T07:28:02.934Z,1029.22
2019-02-26T07:29:54.851Z,1029.28
2019-02-26T07:30:54.894Z,1029.30
2019-02-26T07:32:48.354Z,1029.29
2019-02-26T07:33:47.932Z,1029.29
2019-02-26T07:35:40.919Z,1029.28
2019-02-26T07:36:41.527Z,1029.30
2019-02-26T07:38:40.913Z,1029.35
2019-02-26T07:39:34.027Z,1029.32
2019-02-26T07:41:28.378Z,1029.35
2019-02-26T07:42:27.020Z,1029.35
2019-02-26T07:44:21.727Z,1029.36
2019-02-26T07:45:22.252Z,1029.43
2019-02-26T07:47:13.028Z,1029.52
2019-02-26T07:48:16.232Z,1029.57
2019-02-26T07:50:06.665Z,1029.62
2019-02-26T07:51:06.110Z,1029.62
2019-02-26T07:52:59.500Z,1029.73
2019-02-26T07:54:00.744Z,1029.70
2019-02-26T07:55:52.120Z,1029.72
2019-02-26T07:56:54.635Z,1029.74
2019-02-26T07:58:45.158Z,1029.67
2019-02-26T07:59:47.514Z,1029.68
2019-02-26T08:01:39.904Z,1029.69
2019-02-26T08:02:38.258Z,1029.72
2019-02-26T08:04:32.305Z,1029.71
2019-02-26T08:05:31.289Z,1029.72
2019-02-26T08:07:26.235Z,1029.70
2019-02-26T08:08:24.344Z,1029.71
2019-02-26T08:10:19.263Z,1029.66
2019-02-26T08:11:17.373Z,1029.68
2019-02-26T08:13:10.353Z,1029.70
2019-02-26T08:14:10.417Z,1029.70
2019-02-26T08:16:05.126Z,1029.63
2019-02-26T08:17:04.374Z,1029.63
2019-02-26T08:18:57.168Z,1029.68
2019-02-26T08:19:56.508Z,1029.65
2019-02-26T08:21:50.374Z,1029.70
2019-02-26T08:22:51.402Z,1029.66
2019-02-26T08:24:42.532Z,1029.70
2019-02-26T08:25:42.579Z,1029.71
2019-02-26T08:27:37.725Z,1029.70
2019-02-26T08:28:38.394Z,1029.67
2019-02-26T08:30:28.637Z,1029.70
2019-02-26T08:31:28.686Z,1029.65
2019-02-26T08:33:21.731Z,1029.67
2019-02-26T08:34:21.733Z,1029.65
2019-02-26T08:36:14.737Z,1029.68
2019-02-26T08:37:14.795Z,1029.67
2019-02-26T08:39:07.802Z,1029.67
2019-02-26T08:40:09.420Z,1029.69
2019-02-26T08:42:00.826Z,1029.73
2019-02-26T08:43:00.895Z,1029.74
2019-02-26T08:44:55.865Z,1029.75
2019-02-26T08:45:53.940Z,1029.73
2019-02-26T08:47:46.937Z,1029.74
2019-02-26T08:48:48.455Z,1029.74
2019-02-26T08:50:42.131Z,1029.73
2019-02-26T08:51:40.047Z,1029.75
2019-02-26T08:53:33.044Z,1029.73
2019-02-26T08:54:34.018Z,1029.73
2019-02-26T08:56:30.938Z,1029.72
2019-02-26T08:57:28.659Z,1029.76
2019-02-26T08:59:21.667Z,1029.72
2019-02-26T09:00:21.746Z,1029.64
2019-02-26T09:02:14.714Z,1029.65
2019-02-26T09:03:15.649Z,1029.67
2019-02-26T09:05:09.481Z,1029.67
2019-02-26T09:06:12.781Z,1029.64
2019-02-26T09:08:00.802Z,1029.62
2019-02-26T09:09:02.697Z,1029.63
2019-02-26T09:10:53.855Z,1029.61
2019-02-26T09:11:55.883Z,1029.61
2019-02-26T09:13:46.907Z,1029.62
2019-02-26T09:14:48.126Z,1029.61
2019-02-26T09:16:39.984Z,1029.55
2019-02-26T09:17:42.080Z,1029.51
2019-02-26T09:19:35.144Z,1029.51
2019-02-26T09:20:33.062Z,1029.50
2019-02-26T09:22:26.611Z,1029.54
2019-02-26T09:23:28.237Z,1029.46
2019-02-26T09:25:21.042Z,1029.49
2019-02-26T09:26:19.157Z,1029.47
2019-02-26T09:28:12.141Z,1029.46
2019-02-26T09:29:12.642Z,1029.52
2019-02-26T09:31:06.689Z,1029.52
2019-02-26T09:32:07.328Z,1029.56
2019-02-26T09:33:58.248Z,1029.61
2019-02-26T09:34:59.159Z,1029.62
2019-02-26T09:36:53.025Z,1029.64
2019-02-26T09:37:53.312Z,1029.62
2019-02-26T09:39:44.346Z,1029.71
2019-02-26T09:40:45.174Z,1029.75
2019-02-26T09:42:37.396Z,1029.76
2019-02-26T09:43:38.726Z,1029.74
2019-02-26T09:45:30.450Z,1029.75
2019-02-26T09:46:31.717Z,1029.76
2019-02-26T09:48:23.481Z,1029.74
2019-02-26T09:49:24.599Z,1029.76
2019-02-26T09:51:16.714Z,1029.77
2019-02-26T09:52:18.405Z,1029.76
2019-02-26T09:54:10.900Z,1029.72
2019-02-26T09:55:10.659Z,1029.75
2019-02-26T09:57:03.134Z,1029.73
2019-02-26T09:58:03.188Z,1029.77
2019-02-26T09:59:58.179Z,1029.77
2019-02-26T10:00:56.233Z,1029.80
2019-02-26T10:02:49.946Z,1029.78
2019-02-26T10:03:49.267Z,1029.79
2019-02-26T10:05:42.258Z,1029.74
2019-02-26T10:06:43.024Z,1029.73
2019-02-26T10:08:35.295Z,1029.74
2019-02-26T10:09:37.446Z,1029.73
2019-02-26T10:11:28.334Z,1029.77
2019-02-26T10:12:29.885Z,1029.74
2019-02-26T10:14:21.367Z,1029.80
2019-02-26T10:15:21.426Z,1029.78
2019-02-26T10:17:16.488Z,1029.78
2019-02-26T10:18:14.469Z,1029.80
2019-02-26T10:20:09.377Z,1029.78
2019-02-26T10:21:09.103Z,1029.77
2019-02-26T10:23:02.898Z,1029.75
2019-02-26T10:24:02.029Z,1029.78
2019-02-26T10:25:57.495Z,1029.75
2019-02-26T10:26:53.594Z,1029.76
2019-02-26T10:28:51.078Z,1029.79
2019-02-26T10:29:47.619Z,1029.76
2019-02-26T10:31:41.113Z,1029.81
2019-02-26T10:32:39.682Z,1029.77
2019-02-26T10:34:32.661Z,1029.73
2019-02-26T10:35:33.677Z,1029.76
2019-02-26T10:37:25.710Z,1029.73
2019-02-26T10:38:29.587Z,1029.76
2019-02-26T10:40:19.543Z,1029.78
2019-02-26T10:41:18.808Z,1029.77
2019-02-26T10:43:11.811Z,1029.77
2019-02-26T10:44:11.864Z,1029.74
2019-02-26T10:46:04.852Z,1029.74
2019-02-26T10:47:06.407Z,1029.74
2019-02-26T10:48:57.888Z,1029.71
2019-02-26T10:49:57.954Z,1029.71
2019-02-26T10:51:50.939Z,1029.70
2019-02-26T10:52:52.641Z,1029.72
2019-02-26T10:54:46.473Z,1029.69
2019-02-26T10:55:44.027Z,1029.70
2019-02-26T10:57:38.490Z,1029.67
2019-02-26T10:58:37.079Z,1029.66
2019-02-26T11:00:32.227Z,1029.67
2019-02-26T11:01:30.904Z,1029.66
2019-02-26T11:03:23.117Z,1029.65
2019-02-26T11:04:23.170Z,1029.66
2019-02-26T11:06:18.773Z,1029.62
2019-02-26T11:07:16.208Z,1029.63
2019-02-26T11:09:09.200Z,1029.65
2019-02-26T11:10:11.697Z,1029.60
2019-02-26T11:12:05.199Z,1029.60
2019-02-26T11:13:02.297Z,1029.66
2019-02-26T11:14:56.353Z,1029.59
2019-02-26T11:15:57.559Z,1029.57
2019-02-26T11:17:50.482Z,1029.57
2019-02-26T11:18:48.382Z,1029.55
2019-02-26T11:20:41.371Z,1029.53
2019-02-26T11:21:41.428Z,1029.55
2019-02-26T11:23:36.241Z,1029.51
2019-02-26T11:24:36.171Z,1029.50
2019-02-26T11:26:27.451Z,1029.50
2019-02-26T11:27:27.509Z,1029.53
2019-02-26T11:29:20.499Z,1029.52
2019-02-26T11:30:23.107Z,1029.50
2019-02-26T11:32:15.601Z,1029.53
2019-02-26T11:33:15.455Z,1029.54
2019-02-26T11:35:06.578Z,1029.49
2019-02-26T11:36:08.211Z,1029.52
2019-02-26T11:37:59.631Z,1029.51
2019-02-26T11:39:01.835Z,1029.52
2019-02-26T11:40:52.660Z,1029.54
2019-02-26T11:41:53.760Z,1029.53
2019-02-26T11:43:45.707Z,1029.51
2019-02-26T11:44:45.766Z,1029.46
2019-02-26T11:46:38.753Z,1029.45
2019-02-26T11:47:39.529Z,1029.44
2019-02-26T11:49:31.819Z,1029.42
2019-02-26T11:50:31.853Z,1029.44
2019-02-26T11:52:24.843Z,1029.39
2019-02-26T11:53:24.904Z,1029.39
2019-02-26T11:55:17.889Z,1029.39
2019-02-26T11:56:20.741Z,1029.34
2019-02-26T11:58:13.073Z,1029.38
2019-02-26T11:59:12.599Z,1029.36
2019-02-26T12:01:03.974Z,1029.35
2019-02-26T12:02:06.267Z,1029.36
2019-02-26T12:04:02.533Z,1029.32
2019-02-26T12:04:57.564Z,1029.31
2019-02-26T12:06:50.073Z,1029.26
2019-02-26T12:07:51.424Z,1029.20
2019-02-26T12:09:43.327Z,1029.25
2019-02-26T12:10:43.164Z,1029.23
2019-02-26T12:12:36.849Z,1029.22
2019-02-26T12:13:36.217Z,1029.19
2019-02-26T12:15:30.231Z,1029.18
2019-02-26T12:16:29.257Z,1029.12
2019-02-26T12:18:22.531Z,1029.13
2019-02-26T12:19:23.104Z,1029.15
2019-02-26T12:21:15.311Z,1029.07
2019-02-26T12:22:15.355Z,1029.05
2019-02-26T12:24:09.225Z,1029.01
2019-02-26T12:25:10.952Z,1029.03
2019-02-26T12:27:01.391Z,1028.99
2019-02-26T12:28:02.868Z,1028.97
2019-02-26T12:29:54.664Z,1028.89
2019-02-26T12:30:54.493Z,1028.90
2019-02-26T12:32:50.023Z,1028.87
2019-02-26T12:33:47.538Z,1028.86
2019-02-26T12:35:42.948Z,1028.85
2019-02-26T12:36:40.631Z,1028.85
2019-02-26T12:38:36.578Z,1028.82
2019-02-26T12:39:33.636Z,1028.75
2019-02-26T12:41:26.634Z,1028.80
2019-02-26T12:42:26.697Z,1028.76
2019-02-26T12:44:19.689Z,1028.68
2019-02-26T12:45:19.752Z,1028.68
2019-02-26T12:47:14.694Z,1028.64
2019-02-26T12:48:16.044Z,1028.67
2019-02-26T12:50:08.644Z,1028.64
2019-02-26T12:51:07.675Z,1028.64
2019-02-26T12:52:58.816Z,1028.61
2019-02-26T12:54:00.537Z,1028.62
2019-02-26T12:55:54.022Z,1028.57
2019-02-26T12:56:54.753Z,1028.58
2019-02-26T12:58:47.968Z,1028.54
2019-02-26T12:59:44.973Z,1028.49
2019-02-26T13:01:39.773Z,1028.49
2019-02-26T13:02:39.866Z,1028.51
2019-02-26T13:04:31.021Z,1028.46
2019-02-26T13:05:31.065Z,1028.43
2019-02-26T13:07:24.053Z,1028.45
2019-02-26T13:08:24.354Z,1028.39
2019-02-26T13:10:17.105Z,1028.39
2019-02-26T13:11:18.281Z,1028.33
2019-02-26T13:13:10.141Z,1028.35
2019-02-26T13:14:10.200Z,1028.32
2019-02-26T13:16:03.198Z,1028.33
2019-02-26T13:17:03.293Z,1028.33
2019-02-26T13:19:00.638Z,1028.29
2019-02-26T13:19:58.867Z,1028.30
2019-02-26T13:21:51.851Z,1028.25
2019-02-26T13:22:49.355Z,1028.30
2019-02-26T13:24:42.331Z,1028.25
2019-02-26T13:25:42.383Z,1028.27
2019-02-26T13:27:38.504Z,1028.21
2019-02-26T13:28:37.906Z,1028.19
2019-02-26T13:30:28.421Z,1028.24
2019-02-26T13:31:28.472Z,1028.19
2019-02-26T13:33:27.131Z,1028.19
2019-02-26T13:34:21.519Z,1028.16
2019-02-26T13:36:14.513Z,1028.12
2019-02-26T13:37:14.566Z,1028.10
2019-02-26T13:39:07.576Z,1028.08
2019-02-26T13:40:07.628Z,1028.03
2019-02-26T13:42:05.688Z,1028.04
2019-02-26T13:44:53.669Z,1028.01
2019-02-26T13:45:53.723Z,1027.97
2019-02-26T13:47:46.721Z,1027.99
2019-02-26T13:48:46.766Z,1027.95
2019-02-26T13:50:39.759Z,1027.98
2019-02-26T13:51:39.812Z,1027.92
2019-02-26T13:53:32.806Z,1027.92
2019-02-26T13:54:32.867Z,1027.92
2019-02-26T13:56:26.370Z,1027.89
2019-02-26T13:57:26.419Z,1027.86
2019-02-26T13:59:19.414Z,1027.91
2019-02-26T14:00:26.003Z,1027.89
2019-02-26T14:02:12.447Z,1027.83
2019-02-26T14:03:12.510Z,1027.81
2019-02-26T14:05:05.502Z,1027.79
2019-02-26T14:06:05.553Z,1027.81
2019-02-26T14:07:58.551Z,1027.81
2019-02-26T14:08:58.599Z,1027.82
2019-02-26T14:10:51.596Z,1027.82
2019-02-26T14:11:51.650Z,1027.83
2019-02-26T14:13:44.641Z,1027.80
2019-02-26T14:14:44.701Z,1027.82
2019-02-26T14:16:37.695Z,1027.83
2019-02-26T14:17:37.791Z,1027.85
2019-02-26T14:19:30.738Z,1027.83
2019-02-26T14:20:30.790Z,1027.80
2019-02-26T14:22:23.781Z,1027.80
2019-02-26T14:23:23.835Z,1027.80
2019-02-26T14:25:16.829Z,1027.83
2019-02-26T14:26:17.172Z,1027.82
2019-02-26T14:28:09.869Z,1027.80
2019-02-26T14:29:09.928Z,1027.78
2019-02-26T14:31:02.929Z,1027.75
2019-02-26T14:32:02.981Z,1027.72
2019-02-26T14:33:55.970Z,1027.72
2019-02-26T14:34:56.031Z,1027.69
2019-02-26T14:36:49.039Z,1027.68
2019-02-26T14:37:49.079Z,1027.66
2019-02-26T14:39:42.073Z,1027.71
2019-02-26T14:40:42.133Z,1027.72
2019-02-26T14:42:35.117Z,1027.75
2019-02-26T14:43:35.182Z,1027.71
2019-02-26T14:45:28.179Z,1027.69
2019-02-26T14:46:28.227Z,1027.74
2019-02-26T14:48:21.213Z,1027.70
2019-02-26T14:49:21.275Z,1027.70
2019-02-26T14:51:14.268Z,1027.67
2019-02-26T14:52:14.324Z,1027.69
2019-02-26T14:54:07.311Z,1027.73
2019-02-26T14:55:07.381Z,1027.66
2019-02-26T14:57:00.878Z,1027.67
2019-02-26T14:58:00.929Z,1027.67
2019-02-26T14:59:53.943Z,1027.62
2019-02-26T15:00:57.675Z,1027.60
2019-02-26T15:02:46.984Z,1027.54
2019-02-26T15:03:47.074Z,1027.52
2019-02-26T15:05:40.038Z,1027.49
2019-02-26T15:06:40.107Z,1027.53
2019-02-26T15:08:33.080Z,1027.44
2019-02-26T15:09:33.141Z,1027.45
2019-02-26T15:11:26.137Z,1027.42
2019-02-26T15:12:26.191Z,1027.42
2019-02-26T15:14:19.178Z,1027.39
2019-02-26T15:15:19.256Z,1027.37
2019-02-26T15:17:12.253Z,1027.33
2019-02-26T15:18:12.290Z,1027.35
2019-02-26T15:20:05.282Z,1027.30
2019-02-26T15:21:05.332Z,1027.30
2019-02-26T15:22:58.320Z,1027.29
2019-02-26T15:23:58.380Z,1027.28
2019-02-26T15:25:51.370Z,1027.26
2019-02-26T15:26:51.424Z,1027.25
2019-02-26T15:28:44.409Z,1027.26
2019-02-26T15:29:44.472Z,1027.23
2019-02-26T15:31:37.459Z,1027.22
2019-02-26T15:32:37.518Z,1027.22
2019-02-26T15:34:30.503Z,1027.24
2019-02-26T15:35:30.558Z,1027.27
2019-02-26T15:37:23.557Z,1027.18
2019-02-26T15:38:23.614Z,1027.20
2019-02-26T15:40:16.602Z,1027.20
2019-02-26T15:41:16.656Z,1027.17
2019-02-26T15:43:09.662Z,1027.16
2019-02-26T15:44:09.724Z,1027.15
2019-02-26T15:46:02.724Z,1027.13
2019-02-26T15:47:03.026Z,1027.12
2019-02-26T15:48:55.763Z,1027.15
2019-02-26T15:49:55.821Z,1027.17
2019-02-26T15:51:51.035Z,1027.18
2019-02-26T15:52:52.599Z,1027.16
2019-02-26T15:54:41.860Z,1027.17
2019-02-26T15:55:41.914Z,1027.23
2019-02-26T15:57:34.912Z,1027.15
2019-02-26T15:58:34.968Z,1027.15
2019-02-26T16:00:27.963Z,1027.14
2019-02-26T16:01:28.018Z,1027.12
2019-02-26T16:03:20.999Z,1027.13
2019-02-26T16:04:21.059Z,1027.10
2019-02-26T16:06:14.065Z,1027.12
2019-02-26T16:07:14.111Z,1027.13
2019-02-26T16:09:07.095Z,1027.12
2019-02-26T16:10:07.156Z,1027.12
2019-02-26T16:12:00.153Z,1027.13
2019-02-26T16:13:00.207Z,1027.15
2019-02-26T16:14:53.200Z,1027.10
2019-02-26T16:15:53.256Z,1027.11
2019-02-26T16:17:46.255Z,1027.13
2019-02-26T16:18:46.311Z,1027.12
2019-02-26T16:20:39.325Z,1027.12
2019-02-26T16:21:39.364Z,1027.14
2019-02-26T16:23:32.338Z,1027.12
2019-02-26T16:24:32.397Z,1027.14
2019-02-26T16:26:25.390Z,1027.15
2019-02-26T16:27:25.445Z,1027.17
2019-02-26T16:29:18.429Z,1027.16
2019-02-26T16:30:18.491Z,1027.18
2019-02-26T16:32:11.487Z,1027.18
2019-02-26T16:33:13.675Z,1027.20
2019-02-26T16:35:04.534Z,1027.22
2019-02-26T16:36:04.589Z,1027.20
2019-02-26T16:37:57.578Z,1027.23
2019-02-26T16:38:57.627Z,1027.22
2019-02-26T16:40:50.661Z,1027.23
2019-02-26T16:41:50.680Z,1027.21
2019-02-26T16:43:43.664Z,1027.20
2019-02-26T16:44:43.726Z,1027.17
2019-02-26T16:46:36.720Z,1027.15
2019-02-26T16:47:36.776Z,1027.17
2019-02-26T16:49:29.761Z,1027.20
2019-02-26T16:50:29.826Z,1027.16
2019-02-26T16:52:22.813Z,1027.16
2019-02-26T16:53:22.863Z,1027.20
2019-02-26T16:55:17.282Z,1027.19
2019-02-26T16:56:15.913Z,1027.17
2019-02-26T16:58:08.906Z,1027.17
2019-02-26T16:59:08.960Z,1027.15
2019-02-26T17:01:01.958Z,1027.15
2019-02-26T17:02:02.001Z,1027.19
2019-02-26T17:03:54.994Z,1027.14
2019-02-26T17:04:55.044Z,1027.08
2019-02-26T17:06:48.035Z,1027.12
2019-02-26T17:07:48.088Z,1027.11
2019-02-26T17:09:41.338Z,1027.10
2019-02-26T17:10:41.153Z,1027.12
2019-02-26T17:12:34.144Z,1027.11
2019-02-26T17:13:34.198Z,1027.08
2019-02-26T17:15:27.197Z,1027.09
2019-02-26T17:16:31.285Z,1027.09
2019-02-26T17:18:20.250Z,1027.12
2019-02-26T17:19:20.304Z,1027.13
2019-02-26T17:21:13.286Z,1027.09
2019-02-26T17:22:13.348Z,1027.12
2019-02-26T17:24:06.343Z,1027.12
2019-02-26T17:25:06.400Z,1027.12
2019-02-26T17:26:59.387Z,1027.13